createdAt,value
2022-08-07T00:00:36.249Z,102716.38
2022-08-07T00:03:08.735Z,102705.72
2022-08-07T00:05:37.052Z,102701.28
2022-08-07T00:08:05.000Z,102710.13
2022-08-07T00:10:34.895Z,102703.09
2022-08-07T00:13:17.567Z,102702.16
2022-08-07T00:15:51.652Z,102693.34
2022-08-07T00:18:24.364Z,102689.81
2022-08-07T00:20:53.447Z,102697.75
2022-08-07T00:23:21.632Z,102692.38
2022-08-07T00:25:58.135Z,102690.56
2022-08-07T00:28:33.180Z,102699.41
2022-08-07T00:31:01.299Z,102688.72
2022-08-07T00:33:32.770Z,102690.50
2022-08-07T00:36:00.311Z,102686.88
2022-08-07T00:38:31.351Z,102691.22
2022-08-07T00:41:03.157Z,102686.81
2022-08-07T00:44:00.547Z,102678.78
2022-08-07T00:46:17.397Z,102678.69
2022-08-07T00:48:44.444Z,102670.63
2022-08-07T00:51:18.140Z,102683.03
2022-08-07T00:53:50.829Z,102674.16
2022-08-07T00:56:33.979Z,102681.19
2022-08-07T00:59:01.019Z,102677.56
2022-08-07T01:01:28.730Z,102673.97
2022-08-07T01:04:08.628Z,102673.97
2022-08-07T01:06:39.144Z,102668.69
2022-08-07T01:09:05.649Z,102669.59
2022-08-07T01:12:27.805Z,102670.47
2022-08-07T01:14:28.240Z,102671.31
2022-08-07T01:16:55.513Z,102682.78
2022-08-07T01:19:25.150Z,102667.75
2022-08-07T01:22:04.042Z,102672.19
2022-08-07T01:24:36.074Z,102673.88
2022-08-07T01:27:19.544Z,102669.41
2022-08-07T01:29:47.307Z,102670.31
2022-08-07T01:32:14.289Z,102672.91
2022-08-07T01:34:47.151Z,102668.47
2022-08-07T01:37:19.326Z,102666.69
2022-08-07T01:39:47.767Z,102665.78
2022-08-07T01:42:37.725Z,102661.34
2022-08-07T01:45:04.531Z,102663.97
2022-08-07T01:48:30.133Z,102658.72
2022-08-07T01:50:28.565Z,102658.69
2022-08-07T01:52:58.514Z,102651.53
2022-08-07T01:55:34.300Z,102656.88
2022-08-07T01:58:29.099Z,102657.72
2022-08-07T02:01:10.147Z,102652.38
2022-08-07T02:04:09.108Z,102654.19
2022-08-07T02:06:40.813Z,102652.34
2022-08-07T02:09:11.809Z,102654.13
2022-08-07T02:12:17.652Z,102655.81
2022-08-07T02:14:50.137Z,102654.88
2022-08-07T02:17:27.760Z,102646.94
2022-08-07T02:20:09.496Z,102646.91
2022-08-07T02:22:45.630Z,102651.28
2022-08-07T02:25:17.272Z,102649.50
2022-08-07T02:27:52.195Z,102646.81
2022-08-07T02:30:22.066Z,102652.00
2022-08-07T02:33:03.999Z,102652.88
2022-08-07T02:36:28.564Z,102644.91
2022-08-07T02:38:31.830Z,102639.53
2022-08-07T02:40:59.998Z,102641.31
2022-08-07T02:43:28.006Z,102642.19
2022-08-07T02:46:01.985Z,102641.25
2022-08-07T02:48:30.153Z,102641.22
2022-08-07T02:51:05.570Z,102645.63
2022-08-07T02:53:38.638Z,102643.03
2022-08-07T02:56:13.046Z,102638.47
2022-08-07T02:58:54.230Z,102637.56
2022-08-07T03:01:35.499Z,102650.81
2022-08-07T03:04:12.869Z,102645.44
2022-08-07T03:06:44.830Z,102642.75
2022-08-07T03:09:13.747Z,102636.47
2022-08-07T03:11:52.529Z,102641.78
2022-08-07T03:14:25.661Z,102643.50
2022-08-07T03:16:52.555Z,102641.66
2022-08-07T03:19:20.081Z,102639.88
2022-08-07T03:21:50.779Z,102639.88
2022-08-07T03:24:26.884Z,102630.13
2022-08-07T03:26:58.871Z,102640.63
2022-08-07T03:29:33.683Z,102638.81
2022-08-07T03:32:05.150Z,102629.03
2022-08-07T03:34:39.288Z,102636.94
2022-08-07T03:37:12.407Z,102636.88
2022-08-07T03:39:46.447Z,102635.91
2022-08-07T03:42:27.131Z,102634.09
2022-08-07T03:44:57.971Z,102628.69
2022-08-07T03:47:25.201Z,102640.06
2022-08-07T03:49:57.041Z,102624.09
2022-08-07T03:52:27.321Z,102630.25
2022-08-07T03:55:07.124Z,102625.84
2022-08-07T03:58:34.395Z,102626.63
2022-08-07T04:00:29.318Z,102622.13
2022-08-07T04:02:58.861Z,102618.44
2022-08-07T04:05:39.272Z,102619.22
2022-08-07T04:08:11.361Z,102626.22
2022-08-07T04:10:39.547Z,102628.00
2022-08-07T04:13:15.135Z,102624.56
2022-08-07T04:15:43.541Z,102626.34
2022-08-07T04:18:57.083Z,102630.84
2022-08-07T04:21:01.599Z,102630.00
2022-08-07T04:23:43.212Z,102626.53
2022-08-07T04:26:21.852Z,102622.91
2022-08-07T04:28:48.753Z,102628.25
2022-08-07T04:31:20.308Z,102635.31
2022-08-07T04:34:02.830Z,102632.72
2022-08-07T04:36:29.222Z,102627.41
2022-08-07T04:38:56.436Z,102637.13
2022-08-07T04:41:24.697Z,102630.91
2022-08-07T04:44:12.977Z,102629.19
2022-08-07T04:47:08.245Z,102635.31
2022-08-07T04:49:57.974Z,102638.78
2022-08-07T04:53:07.469Z,102630.94
2022-08-07T04:58:13.072Z,102631.84
2022-08-07T05:00:09.949Z,102638.88
2022-08-07T05:02:39.534Z,102654.81
2022-08-07T05:05:53.270Z,102652.25
2022-08-07T05:08:59.713Z,102652.25
2022-08-07T05:11:27.596Z,102657.59
2022-08-07T05:14:55.368Z,102654.22
2022-08-07T05:17:12.010Z,102644.59
2022-08-07T05:19:44.851Z,102653.63
2022-08-07T05:22:13.431Z,102658.16
2022-08-07T05:24:57.119Z,102654.84
2022-08-07T05:28:05.977Z,102651.47
2022-08-07T05:30:25.066Z,102647.22
2022-08-07T05:32:58.772Z,102639.44
2022-08-07T05:35:33.337Z,102644.97
2022-08-07T05:38:59.994Z,102653.16
2022-08-07T05:41:12.155Z,102649.91
2022-08-07T05:44:07.613Z,102651.03
2022-08-07T05:46:34.815Z,102660.22
2022-08-07T05:49:11.790Z,102661.56
2022-08-07T05:51:40.107Z,102655.75
2022-08-07T05:54:12.272Z,102646.28
2022-08-07T05:56:55.452Z,102640.34
2022-08-07T05:59:24.558Z,102639.53
2022-08-07T06:01:51.750Z,102644.91
2022-08-07T06:04:21.150Z,102642.97
2022-08-07T06:06:56.518Z,102651.63
2022-08-07T06:09:44.999Z,102647.59
2022-08-07T06:12:17.194Z,102648.78
2022-08-07T06:14:49.682Z,102652.72
2022-08-07T06:17:19.477Z,102650.31
2022-08-07T06:20:03.346Z,102661.25
2022-08-07T06:22:38.853Z,102649.00
2022-08-07T06:25:10.043Z,102648.34
2022-08-07T06:27:43.996Z,102648.69
2022-08-07T06:30:32.184Z,102650.38
2022-08-07T06:33:10.037Z,102654.41
2022-08-07T06:35:47.744Z,102648.50
2022-08-07T06:38:28.742Z,102653.84
2022-08-07T06:40:59.021Z,102652.28
2022-08-07T06:43:27.595Z,102660.69
2022-08-07T06:46:11.481Z,102657.94
2022-08-07T06:48:42.190Z,102651.28
2022-08-07T06:51:31.273Z,102654.63
2022-08-07T06:55:28.141Z,102654.47
2022-08-07T06:56:56.854Z,102659.47
2022-08-07T07:00:14.271Z,102651.47
2022-08-07T07:02:26.943Z,102662.41
2022-08-07T07:05:12.589Z,102651.38
2022-08-07T07:07:59.244Z,102655.22
2022-08-07T07:10:35.121Z,102659.97
2022-08-07T07:13:56.073Z,102657.03
2022-08-07T07:16:18.014Z,102661.84
2022-08-07T07:18:57.520Z,102661.06
2022-08-07T07:22:04.058Z,102663.41
2022-08-07T07:24:17.389Z,102657.22
2022-08-07T07:26:51.831Z,102651.91
2022-08-07T07:29:57.123Z,102655.66
2022-08-07T07:32:14.014Z,102659.00
2022-08-07T07:34:45.879Z,102657.00
2022-08-07T07:37:44.435Z,102666.16
2022-08-07T07:40:10.408Z,102657.72
2022-08-07T07:42:43.810Z,102658.59
2022-08-07T07:45:19.489Z,102650.69
2022-08-07T07:47:53.327Z,102649.59
2022-08-07T07:50:33.878Z,102646.97
2022-08-07T07:53:20.188Z,102639.41
2022-08-07T07:55:57.789Z,102638.16
2022-08-07T07:58:31.319Z,102634.28
2022-08-07T08:02:04.143Z,102632.66
2022-08-07T08:04:11.615Z,102639.19
2022-08-07T08:06:52.211Z,102637.78
2022-08-07T08:09:29.467Z,102633.44
2022-08-07T08:12:02.986Z,102630.69
2022-08-07T08:14:34.426Z,102620.69
2022-08-07T08:17:56.448Z,102620.59
2022-08-07T08:20:19.626Z,102622.13
2022-08-07T08:23:04.578Z,102625.72
2022-08-07T08:25:56.317Z,102621.13
2022-08-07T08:28:37.922Z,102626.06
2022-08-07T08:31:08.639Z,102622.56
2022-08-07T08:33:49.321Z,102611.94
2022-08-07T08:36:30.092Z,102609.84
2022-08-07T08:39:02.949Z,102606.47
2022-08-07T08:41:58.533Z,102609.28
2022-08-07T08:45:14.254Z,102603.22
2022-08-07T08:48:12.372Z,102602.44
2022-08-07T08:50:53.350Z,102605.09
2022-08-07T08:53:32.290Z,102607.09
2022-08-07T08:56:27.113Z,102604.69
2022-08-07T08:59:16.409Z,102596.16
2022-08-07T09:01:49.829Z,102600.28
2022-08-07T09:04:33.783Z,102602.44
2022-08-07T09:07:11.539Z,102604.78
2022-08-07T09:09:59.922Z,102611.69
2022-08-07T09:12:40.400Z,102605.22
2022-08-07T09:16:21.760Z,102604.78
2022-08-07T09:18:53.217Z,102609.88
2022-08-07T09:21:33.955Z,102610.31
2022-08-07T09:25:00.672Z,102607.25
2022-08-07T09:27:38.404Z,102607.06
2022-08-07T09:30:20.697Z,102602.63
2022-08-07T09:33:52.937Z,102598.28
2022-08-07T09:36:35.811Z,102592.88
2022-08-07T09:39:52.671Z,102601.94
2022-08-07T09:42:17.204Z,102600.53
2022-08-07T09:47:42.586Z,102603.09
2022-08-07T09:48:11.769Z,102590.19
2022-08-07T09:50:59.629Z,102585.56
2022-08-07T09:53:40.544Z,102587.56
2022-08-07T09:56:37.589Z,102591.72
2022-08-07T09:59:37.074Z,102588.78
2022-08-07T10:03:08.553Z,102590.66
2022-08-07T10:05:59.822Z,102584.03
2022-08-07T10:08:45.213Z,102580.28
2022-08-07T10:12:01.754Z,102580.41
2022-08-07T10:14:47.511Z,102572.06
2022-08-07T10:18:01.349Z,102573.38
2022-08-07T10:20:51.913Z,102569.47
2022-08-07T10:24:06.342Z,102562.72
2022-08-07T10:26:53.229Z,102556.34
2022-08-07T10:29:43.172Z,102549.28
2022-08-07T10:32:51.257Z,102541.19
2022-08-07T10:35:27.266Z,102542.63
2022-08-07T10:38:56.624Z,102537.72
2022-08-07T10:41:46.819Z,102536.56
2022-08-07T10:44:38.386Z,102537.13
2022-08-07T10:47:54.960Z,102537.50
2022-08-07T10:50:25.849Z,102536.06
2022-08-07T10:53:05.183Z,102534.06
2022-08-07T10:55:43.976Z,102533.97
2022-08-07T10:58:46.209Z,102525.69
2022-08-07T11:01:51.789Z,102514.06
2022-08-07T11:04:57.828Z,102514.53
2022-08-07T11:07:59.182Z,102516.81
2022-08-07T11:10:50.011Z,102520.41
2022-08-07T11:14:44.699Z,102506.38
2022-08-07T11:17:07.325Z,102507.00
2022-08-07T11:19:50.145Z,102508.66
2022-08-07T11:22:45.816Z,102500.13
2022-08-07T11:25:42.513Z,102503.34
2022-08-07T11:28:21.264Z,102498.72
2022-08-07T11:30:51.246Z,102496.31
2022-08-07T11:33:54.226Z,102495.53
2022-08-07T11:36:45.097Z,102496.13
2022-08-07T11:39:59.795Z,102497.03
2022-08-07T11:42:59.079Z,102485.78
2022-08-07T11:45:37.781Z,102489.44
2022-08-07T11:49:27.454Z,102474.84
2022-08-07T11:52:14.500Z,102485.34
2022-08-07T11:54:54.837Z,102474.22
2022-08-07T11:58:00.878Z,102474.22
2022-08-07T12:01:00.213Z,102471.88
2022-08-07T12:03:53.082Z,102468.28
2022-08-07T12:06:40.228Z,102469.91
2022-08-07T12:09:35.780Z,102471.06
2022-08-07T12:12:12.412Z,102468.03
2022-08-07T12:14:55.734Z,102467.59
2022-08-07T12:17:34.143Z,102472.50
2022-08-07T12:20:30.362Z,102464.97
2022-08-07T12:24:06.789Z,102468.56
2022-08-07T12:26:46.801Z,102468.13
2022-08-07T12:29:52.550Z,102468.66
2022-08-07T12:32:40.163Z,102468.44
2022-08-07T12:35:12.519Z,102469.72
2022-08-07T12:38:10.353Z,102471.25
2022-08-07T12:40:47.216Z,102461.13
2022-08-07T12:44:02.975Z,102453.44
2022-08-07T12:46:15.843Z,102459.81
2022-08-07T12:48:56.546Z,102461.16
2022-08-07T12:51:46.415Z,102460.97
2022-08-07T12:54:54.666Z,102460.44
2022-08-07T12:58:00.283Z,102449.59
2022-08-07T13:00:30.988Z,102449.91
2022-08-07T13:03:27.042Z,102443.00
2022-08-07T13:06:21.838Z,102439.09
2022-08-07T13:10:18.930Z,102447.22
2022-08-07T13:12:20.109Z,102446.00
2022-08-07T13:15:23.705Z,102446.47
2022-08-07T13:18:26.440Z,102439.63
2022-08-07T13:21:07.230Z,102440.69
2022-08-07T13:24:04.288Z,102439.44
2022-08-07T13:26:46.154Z,102438.59
2022-08-07T13:29:18.538Z,102439.47
2022-08-07T13:32:23.752Z,102438.84
2022-08-07T13:35:08.541Z,102428.88
2022-08-07T13:37:58.502Z,102435.41
2022-08-07T13:40:42.714Z,102429.47
2022-08-07T13:43:13.535Z,102432.47
2022-08-07T13:46:12.830Z,102431.25
2022-08-07T13:48:35.103Z,102428.09
2022-08-07T13:51:27.482Z,102425.25
2022-08-07T13:54:01.628Z,102433.69
2022-08-07T13:56:35.461Z,102427.53
2022-08-07T13:59:12.842Z,102427.06
2022-08-07T14:02:16.604Z,102430.53
2022-08-07T14:04:54.509Z,102423.72
2022-08-07T14:07:30.416Z,102419.75
2022-08-07T14:10:16.540Z,102423.47
2022-08-07T14:12:54.867Z,102416.53
2022-08-07T14:15:35.097Z,102411.13
2022-08-07T14:18:30.647Z,102424.78
2022-08-07T14:22:04.027Z,102425.75
2022-08-07T14:24:33.587Z,102441.84
2022-08-07T14:28:09.950Z,102439.28
2022-08-07T14:30:09.549Z,102437.31
2022-08-07T14:32:47.153Z,102432.50
2022-08-07T14:35:43.264Z,102433.72
2022-08-07T14:38:09.490Z,102429.28
2022-08-07T14:41:12.419Z,102430.28
2022-08-07T14:43:57.950Z,102430.66
2022-08-07T14:46:35.700Z,102431.06
2022-08-07T14:49:55.938Z,102425.41
2022-08-07T14:52:04.656Z,102426.03
2022-08-07T14:57:28.975Z,102414.53
2022-08-07T15:00:29.870Z,102410.66
2022-08-07T15:03:00.020Z,102411.47
2022-08-07T15:05:27.668Z,102411.59
2022-08-07T15:07:58.252Z,102410.41
2022-08-07T15:10:29.835Z,102414.72
2022-08-07T15:13:01.077Z,102412.97
2022-08-07T15:15:38.901Z,102415.44
2022-08-07T15:21:07.966Z,102412.72
2022-08-07T15:26:35.322Z,102414.44
2022-08-07T15:34:50.731Z,102402.50
2022-08-07T15:40:34.503Z,102409.03
2022-08-07T15:43:11.025Z,102406.44
2022-08-07T15:54:34.265Z,102401.00
2022-08-07T15:57:02.668Z,102395.91
2022-08-07T15:59:39.762Z,102390.44
2022-08-07T16:02:15.226Z,102386.69
2022-08-07T16:04:43.985Z,102391.16
2022-08-07T16:08:29.039Z,102387.22
2022-08-07T16:10:14.863Z,102385.38
2022-08-07T16:13:17.570Z,102396.59
2022-08-07T16:16:47.603Z,102381.00
2022-08-07T16:19:58.931Z,102381.75
2022-08-07T16:22:33.647Z,102381.84
2022-08-07T16:25:54.666Z,102381.00
2022-08-07T16:29:18.660Z,102384.31
2022-08-07T16:31:51.477Z,102380.50
2022-08-07T16:34:32.243Z,102381.03
2022-08-07T16:38:03.601Z,102377.97
2022-08-07T16:40:28.884Z,102377.50
2022-08-07T16:44:02.526Z,102388.16
2022-08-07T16:47:06.758Z,102380.44
2022-08-07T16:50:27.290Z,102385.53
2022-08-07T16:53:14.959Z,102393.69
2022-08-07T16:56:11.170Z,102386.69
2022-08-07T16:59:14.440Z,102382.97
2022-08-07T17:02:05.066Z,102384.00
2022-08-07T17:04:51.186Z,102380.78
2022-08-07T17:07:57.780Z,102389.22
2022-08-07T17:10:54.383Z,102384.91
2022-08-07T17:13:41.297Z,102391.78
2022-08-07T17:16:22.319Z,102380.53
2022-08-07T17:18:51.418Z,102380.00
2022-08-07T17:21:51.110Z,102387.09
2022-08-07T17:24:47.143Z,102380.03
2022-08-07T17:27:36.619Z,102374.72
2022-08-07T17:30:15.641Z,102378.03
2022-08-07T17:34:09.179Z,102371.69
2022-08-07T17:36:02.449Z,102367.19
2022-08-07T17:38:50.201Z,102370.19
2022-08-07T17:42:01.823Z,102375.38
2022-08-07T17:44:45.646Z,102378.31
2022-08-07T17:47:38.133Z,102370.31
2022-08-07T17:50:19.307Z,102366.22
2022-08-07T17:52:52.145Z,102378.09
2022-08-07T17:55:55.728Z,102374.41
2022-08-07T17:59:20.120Z,102371.75
2022-08-07T18:01:56.807Z,102371.94
2022-08-07T18:04:31.168Z,102374.59
2022-08-07T18:07:20.095Z,102374.66
2022-08-07T18:10:07.311Z,102377.53
2022-08-07T18:12:51.786Z,102383.19
2022-08-07T18:15:35.636Z,102383.38
2022-08-07T18:18:44.900Z,102379.06
2022-08-07T18:21:42.065Z,102380.13
2022-08-07T18:24:33.177Z,102380.31
2022-08-07T18:27:38.270Z,102376.88
2022-08-07T18:30:31.875Z,102375.06
2022-08-07T18:33:28.942Z,102387.63
2022-08-07T18:36:32.888Z,102386.00
2022-08-07T18:40:07.209Z,102394.34
2022-08-07T18:42:44.670Z,102396.25
2022-08-07T18:45:43.341Z,102398.16
2022-08-07T18:50:04.860Z,102397.28
2022-08-07T18:52:51.787Z,102390.34
2022-08-07T18:54:50.986Z,102400.47
2022-08-07T18:57:37.119Z,102407.03
2022-08-07T19:00:33.157Z,102397.34
2022-08-07T19:03:38.016Z,102404.63
2022-08-07T19:06:33.942Z,102414.56
2022-08-07T19:09:56.643Z,102410.22
2022-08-07T19:12:53.445Z,102408.56
2022-08-07T19:16:05.877Z,102408.72
2022-08-07T19:19:02.532Z,102418.59
2022-08-07T19:22:05.081Z,102413.38
2022-08-07T19:24:44.503Z,102417.94
2022-08-07T19:28:58.565Z,102417.34
2022-08-07T19:31:05.750Z,102422.88
2022-08-07T19:33:10.061Z,102423.88
2022-08-07T19:35:42.087Z,102432.00
2022-08-07T19:38:16.049Z,102427.69
2022-08-07T19:40:50.641Z,102434.84
2022-08-07T19:43:43.518Z,102439.38
2022-08-07T19:46:19.217Z,102437.78
2022-08-07T19:49:00.104Z,102437.84
2022-08-07T19:51:51.007Z,102447.84
2022-08-07T19:54:30.888Z,102454.19
2022-08-07T19:58:03.262Z,102447.09
2022-08-07T20:00:08.819Z,102452.53
2022-08-07T20:03:01.643Z,102450.00
2022-08-07T20:06:00.592Z,102459.06
2022-08-07T20:08:28.498Z,102456.56
2022-08-07T20:11:02.171Z,102459.34
2022-08-07T20:13:42.346Z,102462.13
2022-08-07T20:16:32.186Z,102468.47
2022-08-07T20:18:59.183Z,102462.34
2022-08-07T20:21:29.131Z,102461.53
2022-08-07T20:24:16.649Z,102468.78
2022-08-07T20:26:52.128Z,102467.94
2022-08-07T20:29:49.072Z,102463.50
2022-08-07T20:32:23.121Z,102473.38
2022-08-07T20:35:00.561Z,102467.16
2022-08-07T20:37:46.849Z,102469.91
2022-08-07T20:40:31.170Z,102468.19
2022-08-07T20:43:01.071Z,102470.91
2022-08-07T20:45:33.555Z,102468.31
2022-08-07T20:48:28.667Z,102463.09
2022-08-07T20:51:00.159Z,102456.91
2022-08-07T20:54:02.275Z,102464.09
2022-08-07T20:56:26.062Z,102459.72
2022-08-07T20:58:55.835Z,102460.63
2022-08-07T21:01:26.778Z,102462.44
2022-08-07T21:04:21.992Z,102466.03
2022-08-07T21:06:53.416Z,102467.81
2022-08-07T21:09:24.217Z,102466.94
2022-08-07T21:11:57.042Z,102466.97
2022-08-07T21:14:33.271Z,102472.34
2022-08-07T21:18:00.976Z,102464.34
2022-08-07T21:20:01.015Z,102472.41
2022-08-07T21:22:38.559Z,102476.00
2022-08-07T21:25:12.035Z,102469.81
2022-08-07T21:28:02.120Z,102468.03
2022-08-07T21:30:46.887Z,102478.72
2022-08-07T21:33:21.433Z,102465.38
2022-08-07T21:36:12.197Z,102468.06
2022-08-07T21:39:46.626Z,102467.22
2022-08-07T21:42:48.178Z,102466.34
2022-08-07T21:46:08.582Z,102465.47
2022-08-07T21:48:41.524Z,102466.41
2022-08-07T21:51:20.306Z,102475.34
2022-08-07T21:53:54.961Z,102472.78
2022-08-07T21:56:37.701Z,102467.47
2022-08-07T21:59:22.379Z,102473.72
2022-08-07T22:02:11.091Z,102476.41
2022-08-07T22:04:51.108Z,102481.81
2022-08-07T22:07:31.581Z,102490.75
2022-08-07T22:10:12.880Z,102485.47
2022-08-07T22:12:53.689Z,102494.38
2022-08-07T22:16:39.867Z,102487.28
2022-08-07T22:18:49.789Z,102485.56
2022-08-07T22:22:02.799Z,102489.13
2022-08-07T22:25:07.564Z,102489.16
2022-08-07T22:28:29.832Z,102480.28
2022-08-07T22:30:31.636Z,102484.78
2022-08-07T22:33:12.824Z,102493.69
2022-08-07T22:36:04.425Z,102493.69
2022-08-07T22:38:48.174Z,102496.38
2022-08-07T22:41:29.183Z,102490.19
2022-08-07T22:44:13.293Z,102490.19
2022-08-07T22:47:23.180Z,102494.66
2022-08-07T22:50:13.232Z,102501.81
2022-08-07T22:53:15.358Z,102496.47
2022-08-07T22:55:57.130Z,102499.16
2022-08-07T22:58:38.178Z,102504.50
2022-08-07T23:01:23.582Z,102502.75
2022-08-07T23:04:16.409Z,102496.53
2022-08-07T23:07:39.713Z,102507.19
2022-08-07T23:10:41.849Z,102501.88
2022-08-07T23:13:49.009Z,102501.88
2022-08-07T23:16:54.615Z,102501.84
2022-08-07T23:20:06.491Z,102502.75
2022-08-07T23:22:52.556Z,102509.84
2022-08-07T23:25:37.896Z,102500.97
2022-08-07T23:28:29.474Z,102502.75
2022-08-07T23:31:42.874Z,102500.97
2022-08-07T23:34:38.244Z,102501.00
2022-08-07T23:37:29.440Z,102508.09
2022-08-07T23:40:07.399Z,102509.00
2022-08-07T23:43:16.788Z,102512.56
2022-08-07T23:46:03.643Z,102505.47
2022-08-07T23:49:15.636Z,102507.25
2022-08-07T23:53:01.266Z,102514.34
2022-08-07T23:54:59.345Z,102511.69
2022-08-07T23:57:44.548Z,102516.13
